Time;durP1;ratioP1;P1;durP2;ratioP2;P2;SDS_P1;SDS_P2;PMS_P1;PMS_P2;Temp;Humidity;BMP_temperature;BMP_pressure;BME280_temperature;BME280_humidity;BME280_pressure;Samples;Min_cycle;Max_cycle;Signal;HPM_P1;HPM_P2
2023/03/27 00:01:03;;;;;;;9.55;1.30;;;4.90;99.90;;;;;;5091942;28;20170;-84
2023/03/27 00:03:52;;;;;;;8.00;1.98;;;4.80;99.90;;;;;;5094817;28;20059;-85
2023/03/27 00:06:38;;;;;;;15.45;2.42;;;4.90;99.90;;;;;;5093370;28;20059;-86
2023/03/27 00:09:24;;;;;;;12.65;1.83;;;4.90;99.90;;;;;;5080990;28;20048;-83
2023/03/27 00:12:10;;;;;;;7.15;1.83;;;4.80;99.90;;;;;;5094649;28;20048;-83
2023/03/27 00:14:57;;;;;;;8.73;1.65;;;4.70;99.90;;;;;;5093102;28;20082;-84
2023/03/27 00:17:46;;;;;;;9.25;1.00;;;4.70;99.90;;;;;;5068274;28;20051;-85
2023/03/27 00:20:36;;;;;;;12.20;1.50;;;4.60;99.90;;;;;;5092542;28;20059;-83
2023/03/27 00:23:22;;;;;;;5.57;1.45;;;4.60;99.90;;;;;;5077892;28;20048;-84
2023/03/27 00:26:08;;;;;;;10.35;2.00;;;4.60;99.90;;;;;;5100520;28;20052;-85
2023/03/27 00:28:54;;;;;;;3.83;1.13;;;4.60;99.90;;;;;;5077782;28;20161;-83
2023/03/27 00:31:40;;;;;;;6.53;0.82;;;4.60;99.90;;;;;;5077199;28;20064;-84
2023/03/27 00:34:27;;;;;;;6.05;1.20;;;4.60;99.90;;;;;;5100458;28;20051;-85
2023/03/27 00:37:15;;;;;;;8.85;1.38;;;4.50;99.90;;;;;;5093168;28;20048;-86
2023/03/27 00:40:05;;;;;;;7.93;1.23;;;4.60;99.90;;;;;;5091367;28;20055;-84
2023/03/27 00:42:56;;;;;;;7.82;1.30;;;4.60;99.90;;;;;;5096484;28;20487;-83
2023/03/27 00:45:43;;;;;;;7.90;1.02;;;4.60;99.90;;;;;;5077439;28;20127;-84
2023/03/27 00:48:33;;;;;;;11.48;1.10;;;4.60;99.90;;;;;;5095212;28;20044;-85
2023/03/27 00:51:23;;;;;;;5.38;0.98;;;4.50;99.90;;;;;;5095268;28;20104;-85
2023/03/27 00:54:12;;;;;;;14.55;1.30;;;4.60;99.90;;;;;;5091913;28;20084;-86
2023/03/27 00:57:04;;;;;;;12.00;1.90;;;4.60;99.90;;;;;;5092945;28;20716;-84
2023/03/27 00:59:52;;;;;;;8.68;1.27;;;4.50;99.90;;;;;;5079408;28;20051;-86
2023/03/27 01:02:41;;;;;;;11.52;1.65;;;4.50;99.90;;;;;;5091744;28;20415;-85
2023/03/27 01:05:28;;;;;;;10.95;1.50;;;4.50;99.90;;;;;;5094382;28;20072;-84
2023/03/27 01:08:15;;;;;;;10.50;1.67;;;4.60;99.90;;;;;;5091499;28;20492;-85
2023/03/27 01:11:32;;;;;;;7.18;1.23;;;4.60;99.90;;;;;;5092109;28;20046;-84
2023/03/27 01:14:49;;;;;;;8.60;1.55;;;4.50;99.90;;;;;;5100200;28;20062;-83
2023/03/27 01:17:45;;;;;;;6.05;1.10;;;4.70;99.90;;;;;;5090687;28;20040;-83
2023/03/27 01:20:59;;;;;;;11.90;2.47;;;4.70;99.90;;;;;;5095233;28;20496;-84
2023/03/27 01:23:45;;;;;;;10.50;1.98;;;4.70;99.90;;;;;;5090253;28;20148;-85
2023/03/27 01:26:56;;;;;;;9.07;1.35;;;4.70;99.90;;;;;;5090596;28;20055;-84
2023/03/27 01:30:12;;;;;;;7.80;1.40;;;4.80;99.90;;;;;;5093569;28;20138;-83
2023/03/27 01:33:25;;;;;;;10.07;1.98;;;4.80;99.90;;;;;;5094527;28;20052;-85
2023/03/27 01:36:20;;;;;;;7.50;1.23;;;4.90;99.90;;;;;;5100442;28;20409;-86
2023/03/27 01:39:24;;;;;;;13.70;1.70;;;4.90;99.90;;;;;;5092913;28;20048;-83
2023/03/27 01:42:19;;;;;;;22.58;2.72;;;5.00;99.90;;;;;;5090516;28;20480;-83
2023/03/27 01:45:19;;;;;;;15.30;2.42;;;4.90;99.90;;;;;;5091612;28;20048;-83
2023/03/27 01:48:24;;;;;;;16.60;3.08;;;4.80;99.90;;;;;;5096502;28;20085;-84
2023/03/27 01:51:21;;;;;;;12.63;2.00;;;4.70;99.90;;;;;;5074528;28;20094;-86
2023/03/27 01:54:20;;;;;;;8.23;2.10;;;4.60;99.90;;;;;;5092653;28;20512;-85
2023/03/27 01:57:15;;;;;;;7.78;1.55;;;4.50;99.90;;;;;;5091128;28;20047;-86
2023/03/27 02:00:12;;;;;;;10.88;1.55;;;4.40;99.90;;;;;;5090835;28;20506;-84
2023/03/27 02:03:08;;;;;;;8.32;3.33;;;4.40;99.90;;;;;;5093117;28;20044;-86
2023/03/27 02:06:07;;;;;;;9.07;1.27;;;4.30;99.90;;;;;;5096555;28;20044;-86
2023/03/27 02:09:13;;;;;;;6.50;1.13;;;4.30;99.90;;;;;;5089639;28;20044;-85
2023/03/27 02:12:07;;;;;;;11.38;1.73;;;4.30;99.90;;;;;;5089468;28;20048;-86
2023/03/27 02:14:55;;;;;;;10.57;1.70;;;4.30;99.90;;;;;;5089535;28;20094;-85
2023/03/27 02:17:51;;;;;;;10.23;2.35;;;4.30;99.90;;;;;;5090045;28;20051;-82
2023/03/27 02:20:39;;;;;;;17.98;2.72;;;4.30;99.90;;;;;;5071954;28;20048;-85
2023/03/27 02:23:25;;;;;;;13.77;2.33;;;4.40;99.90;;;;;;5105163;28;20142;-86
2023/03/27 02:26:12;;;;;;;8.65;1.88;;;4.50;99.90;;;;;;5057404;28;20159;-84
2023/03/27 02:29:18;;;;;;;14.80;1.77;;;4.50;99.90;;;;;;5058775;28;20078;-84
2023/03/27 02:32:11;;;;;;;;;;;4.50;99.90;;;;;;5072144;28;20059;-85
2023/03/27 02:35:12;;;;;;;6.00;1.05;;;4.50;99.90;;;;;;5096463;28;19932;-84
2023/03/27 02:38:29;;;;;;;10.43;1.40;;;4.60;99.90;;;;;;5093445;28;20130;-84
2023/03/27 02:41:51;;;;;;;10.45;1.80;;;4.60;99.90;;;;;;5098327;28;20047;-85
2023/03/27 02:44:52;;;;;;;7.28;1.42;;;4.60;99.90;;;;;;5089215;28;20113;-84
2023/03/27 02:47:47;;;;;;;7.90;1.77;;;4.60;99.90;;;;;;5089432;28;20128;-84
2023/03/27 02:50:48;;;;;;;9.80;1.42;;;4.50;99.90;;;;;;5092507;28;20044;-85
2023/03/27 02:53:42;;;;;;;7.80;1.95;;;4.50;99.90;;;;;;5094699;28;20131;-84
2023/03/27 02:56:32;;;;;;;10.00;2.15;;;4.50;99.90;;;;;;5065267;28;20469;-84
2023/03/27 02:59:25;;;;;;;6.38;1.27;;;4.40;99.90;;;;;;5094428;28;20059;-85
2023/03/27 03:02:18;;;;;;;7.93;1.85;;;4.40;99.90;;;;;;5072170;28;20083;-84
2023/03/27 03:05:13;;;;;;;10.88;2.03;;;4.50;99.90;;;;;;5089389;28;20120;-84
2023/03/27 03:07:59;;;;;;;7.13;1.65;;;4.50;99.90;;;;;;5090819;28;20044;-83
2023/03/27 03:10:46;;;;;;;11.13;2.22;;;4.60;99.90;;;;;;5071677;28;20520;-84
2023/03/27 03:13:32;;;;;;;9.63;1.70;;;4.60;99.90;;;;;;5070821;28;20063;-84
2023/03/27 03:16:18;;;;;;;13.30;2.65;;;4.70;99.90;;;;;;5095617;28;20052;-85
2023/03/27 03:19:05;;;;;;;8.85;1.85;;;4.80;99.90;;;;;;5076630;28;20056;-83
2023/03/27 03:21:51;;;;;;;8.88;2.47;;;4.80;99.90;;;;;;5089060;28;20076;-86
2023/03/27 03:24:40;;;;;;;11.13;2.10;;;4.80;99.90;;;;;;5097466;28;20052;-85
2023/03/27 03:27:28;;;;;;;14.07;2.45;;;4.80;99.90;;;;;;5089835;28;20066;-84
2023/03/27 03:30:14;;;;;;;12.13;2.00;;;4.70;99.90;;;;;;5097654;28;20052;-85
2023/03/27 03:33:01;;;;;;;10.15;3.40;;;4.80;99.90;;;;;;5077053;28;20052;-83
2023/03/27 03:35:50;;;;;;;12.55;1.85;;;4.70;99.90;;;;;;5098700;28;20044;-84
2023/03/27 03:38:36;;;;;;;10.57;2.22;;;4.70;99.90;;;;;;5107900;28;20044;-86
2023/03/27 03:41:22;;;;;;;12.27;1.98;;;4.80;99.90;;;;;;5102600;28;20054;-84
2023/03/27 03:44:09;;;;;;;7.78;1.38;;;4.70;99.90;;;;;;5098501;28;20112;-84
2023/03/27 03:46:55;;;;;;;8.10;1.85;;;4.80;99.90;;;;;;5100212;28;20109;-83
2023/03/27 03:49:41;;;;;;;7.95;1.77;;;4.70;99.90;;;;;;5101169;28;20085;-85
2023/03/27 03:52:27;;;;;;;6.82;1.27;;;4.70;99.90;;;;;;5093308;28;20060;-85
2023/03/27 03:55:14;;;;;;;14.13;1.88;;;4.60;99.90;;;;;;5097533;28;20068;-85
2023/03/27 03:58:00;;;;;;;7.50;1.45;;;4.60;99.90;;;;;;5092935;28;20105;-88
2023/03/27 04:00:46;;;;;;;9.48;1.25;;;4.60;99.90;;;;;;5074300;28;20066;-84
2023/03/27 04:03:32;;;;;;;5.07;0.93;;;4.50;99.90;;;;;;5094907;28;20089;-86
2023/03/27 04:06:24;;;;;;;5.60;1.02;;;4.50;99.90;;;;;;5093455;28;20056;-86
2023/03/27 04:09:10;;;;;;;7.97;1.00;;;4.50;99.90;;;;;;5087637;28;20051;-83
2023/03/27 04:11:56;;;;;;;5.05;1.48;;;4.50;99.90;;;;;;5077703;28;20048;-86
2023/03/27 04:14:43;;;;;;;7.60;1.13;;;4.60;99.90;;;;;;5077400;28;20488;-84
2023/03/27 04:17:32;;;;;;;7.32;1.58;;;4.60;99.90;;;;;;5077945;28;20066;-85
2023/03/27 04:20:18;;;;;;;6.75;2.05;;;4.50;99.90;;;;;;5091824;28;20051;-84
2023/03/27 04:23:04;;;;;;;3.97;0.77;;;4.40;99.90;;;;;;5098287;28;20055;-86
2023/03/27 04:25:51;;;;;;;5.45;0.90;;;4.20;99.90;;;;;;5086502;28;20048;-84
2023/03/27 04:28:38;;;;;;;3.20;0.70;;;4.10;99.90;;;;;;5092909;28;20051;-84
2023/03/27 04:31:25;;;;;;;7.47;1.88;;;3.90;99.90;;;;;;5074988;28;20509;-86
2023/03/27 04:34:11;;;;;;;13.80;2.53;;;3.90;99.90;;;;;;5092604;28;20496;-82
2023/03/27 04:36:57;;;;;;;10.43;1.75;;;3.70;99.90;;;;;;5091827;28;20553;-84
2023/03/27 04:39:45;;;;;;;6.53;1.05;;;3.70;99.90;;;;;;5102692;28;20055;-86
2023/03/27 04:42:31;;;;;;;4.60;0.68;;;3.60;99.90;;;;;;5093477;28;20048;-84
2023/03/27 04:45:22;;;;;;;8.60;1.80;;;3.60;99.90;;;;;;5059782;28;20076;-84
2023/03/27 04:48:08;;;;;;;5.32;1.70;;;3.60;99.90;;;;;;5092485;28;20048;-84
2023/03/27 04:50:54;;;;;;;5.63;1.00;;;3.60;99.90;;;;;;5091703;28;20051;-85
2023/03/27 04:53:41;;;;;;;17.00;2.35;;;3.60;99.90;;;;;;5091987;28;20134;-84
2023/03/27 04:56:29;;;;;;;10.13;0.88;;;3.60;99.90;;;;;;5092967;28;20526;-85
2023/03/27 04:59:15;;;;;;;11.93;1.85;;;3.70;99.90;;;;;;5098518;28;20044;-85
2023/03/27 05:02:03;;;;;;;7.15;1.20;;;3.80;99.90;;;;;;5093467;28;20059;-84
2023/03/27 05:04:50;;;;;;;6.53;0.80;;;3.80;99.90;;;;;;5091998;28;20412;-83
2023/03/27 05:07:36;;;;;;;7.13;1.15;;;3.80;99.90;;;;;;5090051;28;20500;-85
2023/03/27 05:10:23;;;;;;;19.63;2.67;;;4.00;99.90;;;;;;5090721;28;20047;-85
2023/03/27 05:13:09;;;;;;;12.15;1.58;;;3.90;99.90;;;;;;5067410;28;20051;-84
2023/03/27 05:15:57;;;;;;;7.85;1.10;;;3.90;99.90;;;;;;5073103;28;20063;-86
2023/03/27 05:18:44;;;;;;;12.43;1.50;;;3.90;99.90;;;;;;5099054;28;20058;-84
2023/03/27 05:21:30;;;;;;;4.47;1.02;;;3.90;99.90;;;;;;5076289;28;20047;-84
2023/03/27 05:24:16;;;;;;;8.95;1.10;;;3.90;99.90;;;;;;5090574;28;20052;-85
2023/03/27 05:27:02;;;;;;;7.50;1.50;;;3.90;99.90;;;;;;5091550;28;20486;-86
2023/03/27 05:29:48;;;;;;;4.38;0.85;;;3.90;99.90;;;;;;5082388;28;20090;-84
2023/03/27 05:32:34;;;;;;;7.55;1.08;;;3.80;99.90;;;;;;5073153;28;20048;-85
2023/03/27 05:35:22;;;;;;;7.78;1.33;;;3.80;99.90;;;;;;5095912;28;20044;-83
2023/03/27 05:38:08;;;;;;;8.38;1.50;;;3.70;99.90;;;;;;5094791;28;20047;-83
2023/03/27 05:40:55;;;;;;;10.10;2.42;;;3.80;99.90;;;;;;5091190;28;20475;-85
2023/03/27 05:43:41;;;;;;;15.10;1.63;;;3.90;99.90;;;;;;5089792;28;20051;-87
2023/03/27 05:46:27;;;;;;;10.77;1.80;;;4.00;99.90;;;;;;5080547;28;20111;-87
2023/03/27 05:49:14;;;;;;;8.40;2.95;;;4.20;99.90;;;;;;5072254;28;20499;-86
2023/03/27 05:52:00;;;;;;;10.10;1.48;;;4.40;99.90;;;;;;5081594;28;20044;-88
2023/03/27 05:54:46;;;;;;;6.82;1.40;;;4.50;99.90;;;;;;5072976;28;20047;-85
2023/03/27 05:57:36;;;;;;;8.68;1.48;;;4.50;99.90;;;;;;5092155;28;20052;-85
2023/03/27 06:00:24;;;;;;;10.00;1.08;;;4.50;99.90;;;;;;5096730;28;20047;-88
2023/03/27 06:03:11;;;;;;;5.93;1.88;;;4.60;99.90;;;;;;5090424;28;20051;-86
2023/03/27 06:05:58;;;;;;;9.18;1.42;;;4.60;99.90;;;;;;5059288;28;20067;-86
2023/03/27 06:08:45;;;;;;;6.68;1.50;;;4.60;99.90;;;;;;5090171;28;20079;-86
2023/03/27 06:11:31;;;;;;;18.48;2.78;;;4.70;99.90;;;;;;5078139;28;20104;-86
2023/03/27 06:14:17;;;;;;;10.82;1.60;;;4.70;99.90;;;;;;5082696;28;20098;-88
2023/03/27 06:17:05;;;;;;;10.82;1.40;;;4.70;99.90;;;;;;5090880;28;20101;-85
2023/03/27 06:19:51;;;;;;;10.32;1.45;;;4.80;99.90;;;;;;5074924;28;20135;-85
2023/03/27 06:22:46;;;;;;;6.47;1.30;;;4.80;99.90;;;;;;5070896;28;20113;-87
2023/03/27 06:25:33;;;;;;;5.68;1.10;;;4.80;99.90;;;;;;5089114;28;20134;-87
2023/03/27 06:28:19;;;;;;;11.45;1.25;;;4.80;99.90;;;;;;5080774;28;20107;-88
2023/03/27 06:31:07;;;;;;;11.05;1.27;;;4.80;99.90;;;;;;5097232;28;20184;-85
2023/03/27 06:33:53;;;;;;;11.30;1.60;;;4.70;99.90;;;;;;5096418;28;20044;-84
2023/03/27 06:36:40;;;;;;;9.38;2.03;;;4.70;99.90;;;;;;5089836;28;20052;-86
2023/03/27 06:39:26;;;;;;;16.60;3.10;;;4.80;99.90;;;;;;5075045;28;20044;-86
2023/03/27 06:42:12;;;;;;;12.98;1.73;;;4.90;99.90;;;;;;5074048;28;20642;-84
2023/03/27 06:44:58;;;;;;;34.90;3.53;;;5.00;99.90;;;;;;5079177;28;20134;-85
2023/03/27 06:47:58;;;;;;;6.32;1.30;;;5.00;99.90;;;;;;5093977;28;20075;-83
2023/03/27 06:50:46;;;;;;;8.65;1.70;;;5.00;99.90;;;;;;5093263;28;20136;-83
2023/03/27 06:53:32;;;;;;;6.90;1.55;;;5.00;99.90;;;;;;5098147;28;20052;-84
2023/03/27 06:56:19;;;;;;;14.60;1.38;;;5.20;99.90;;;;;;5078648;28;20058;-85
2023/03/27 06:59:05;;;;;;;7.28;1.10;;;5.30;99.90;;;;;;5076130;28;20040;-87
2023/03/27 07:01:52;;;;;;;11.40;1.55;;;5.50;99.90;;;;;;5098732;28;20056;-86
2023/03/27 07:04:39;;;;;;;9.93;1.50;;;5.70;99.90;;;;;;5088846;28;20060;-83
2023/03/27 07:07:27;;;;;;;12.10;1.60;;;5.70;99.90;;;;;;5089934;28;20090;-84
2023/03/27 07:10:14;;;;;;;12.13;1.90;;;5.10;99.90;;;;;;5090904;28;20087;-84
2023/03/27 07:13:00;;;;;;;5.28;1.40;;;4.60;99.90;;;;;;5090337;28;20040;-83
2023/03/27 07:15:46;;;;;;;7.78;1.55;;;4.20;99.90;;;;;;5095413;28;20346;-84
2023/03/27 07:18:32;;;;;;;6.18;1.00;;;3.80;99.90;;;;;;5091231;28;20051;-85
2023/03/27 07:21:18;;;;;;;4.45;1.00;;;3.70;99.90;;;;;;5070641;28;20107;-85
2023/03/27 07:24:04;;;;;;;8.27;1.30;;;3.60;99.90;;;;;;5088757;28;20109;-83
2023/03/27 07:26:50;;;;;;;7.78;1.20;;;3.50;99.90;;;;;;5075736;28;20048;-84
2023/03/27 07:29:37;;;;;;;5.07;0.85;;;3.70;99.90;;;;;;5075453;28;20511;-83
2023/03/27 07:32:23;;;;;;;7.72;1.35;;;3.90;99.90;;;;;;5096313;28;20052;-86
2023/03/27 07:35:10;;;;;;;7.72;0.98;;;4.20;99.90;;;;;;5088690;28;20083;-84
2023/03/27 07:37:57;;;;;;;5.03;0.80;;;4.50;99.90;;;;;;5071592;28;20082;-84
2023/03/27 07:40:45;;;;;;;10.70;2.95;;;4.60;99.90;;;;;;5092811;28;20354;-86
2023/03/27 07:43:33;;;;;;;9.98;1.38;;;4.80;99.90;;;;;;5076654;28;20078;-84
2023/03/27 07:46:19;;;;;;;8.07;1.38;;;5.00;99.90;;;;;;5090576;28;20055;-86
2023/03/27 07:49:05;;;;;;;6.15;1.30;;;5.20;99.90;;;;;;5073956;28;20056;-84
2023/03/27 07:51:52;;;;;;;21.20;2.28;;;5.40;99.90;;;;;;5091493;28;20044;-86
2023/03/27 07:54:38;;;;;;;13.95;1.70;;;5.60;99.90;;;;;;5090216;28;20058;-83
2023/03/27 07:57:24;;;;;;;10.13;1.40;;;5.80;99.90;;;;;;5089443;28;20051;-84
2023/03/27 08:00:12;;;;;;;14.52;2.78;;;6.10;99.90;;;;;;5091849;28;20118;-86
2023/03/27 08:03:06;;;;;;;8.48;2.35;;;6.40;99.90;;;;;;5095559;28;20051;-82
2023/03/27 08:05:54;;;;;;;8.45;1.40;;;6.40;99.90;;;;;;5080868;28;20081;-84
2023/03/27 08:08:40;;;;;;;8.68;1.30;;;6.10;99.90;;;;;;5092539;28;20051;-87
2023/03/27 08:11:27;;;;;;;6.82;0.90;;;6.00;99.90;;;;;;5092412;28;20040;-85
2023/03/27 08:14:13;;;;;;;5.03;0.80;;;6.20;99.90;;;;;;5089269;28;20127;-85
2023/03/27 08:16:59;;;;;;;6.50;1.20;;;6.40;99.90;;;;;;5088048;28;20385;-85
2023/03/27 08:19:45;;;;;;;10.23;1.17;;;6.50;99.90;;;;;;5091698;28;20055;-86
2023/03/27 08:22:32;;;;;;;6.47;0.90;;;6.60;99.90;;;;;;5096453;28;20048;-86
2023/03/27 08:25:21;;;;;;;9.60;1.17;;;6.70;99.90;;;;;;5102646;28;20052;-84
2023/03/27 08:28:07;;;;;;;10.30;2.40;;;6.70;99.90;;;;;;5078110;28;20079;-84
2023/03/27 08:30:53;;;;;;;4.63;0.65;;;6.80;99.90;;;;;;5092025;28;20563;-84
2023/03/27 08:33:43;;;;;;;5.60;0.88;;;6.90;99.90;;;;;;5092518;28;20414;-83
2023/03/27 08:36:30;;;;;;;16.10;2.00;;;7.00;99.90;;;;;;5075226;28;20503;-83
2023/03/27 08:39:16;;;;;;;8.10;0.80;;;7.00;99.90;;;;;;5096636;28;20108;-86
2023/03/27 08:42:05;;;;;;;4.88;0.98;;;7.20;99.90;;;;;;5092059;28;20109;-83
2023/03/27 08:44:53;;;;;;;3.65;0.80;;;7.20;99.90;;;;;;5062346;28;20048;-83
2023/03/27 08:47:49;;;;;;;6.55;0.93;;;7.30;99.90;;;;;;5078237;28;20471;-83
2023/03/27 08:50:55;;;;;;;64.90;4.70;;;7.50;99.90;;;;;;5091508;28;20051;-84
2023/03/27 08:53:55;;;;;;;6.15;1.55;;;7.60;99.90;;;;;;5093397;28;20074;-85
2023/03/27 08:56:45;;;;;;;3.47;0.93;;;7.40;99.90;;;;;;5067531;28;20489;-84
2023/03/27 08:59:31;;;;;;;6.68;0.93;;;7.40;99.90;;;;;;5095797;28;20044;-84
2023/03/27 09:02:32;;;;;;;3.60;0.60;;;7.50;99.90;;;;;;5073972;28;20201;-84
2023/03/27 09:05:27;;;;;;;4.45;0.77;;;7.60;99.90;;;;;;5075649;28;20442;-84
2023/03/27 09:08:30;;;;;;;3.72;0.80;;;7.60;99.90;;;;;;5095357;28;20052;-84
2023/03/27 09:11:16;;;;;;;8.68;1.08;;;7.70;99.90;;;;;;5090690;28;20051;-84
2023/03/27 09:14:28;;;;;;;8.48;1.30;;;7.80;99.90;;;;;;5097312;28;20048;-87
2023/03/27 09:17:26;;;;;;;10.82;1.05;;;7.90;99.90;;;;;;5090192;28;20051;-84
2023/03/27 09:20:27;;;;;;;6.55;1.13;;;7.90;99.90;;;;;;5073157;28;20052;-84
2023/03/27 09:23:25;;;;;;;5.32;1.05;;;8.00;99.90;;;;;;5096272;28;20070;-84
2023/03/27 09:26:24;;;;;;;4.50;1.27;;;7.70;99.90;;;;;;5079525;28;20076;-86
2023/03/27 09:29:19;;;;;;;8.40;0.93;;;7.90;99.90;;;;;;5061372;28;20078;-87
2023/03/27 09:32:13;;;;;;;7.03;2.10;;;8.00;99.90;;;;;;5086243;28;20565;-86
2023/03/27 09:34:59;;;;;;;4.82;0.85;;;7.90;99.90;;;;;;5074382;28;20064;-85
2023/03/27 09:37:49;;;;;;;6.15;1.00;;;7.80;99.90;;;;;;5091160;28;20051;-86
2023/03/27 09:40:44;;;;;;;11.20;1.77;;;7.90;99.90;;;;;;5072279;28;20067;-85
2023/03/27 09:43:54;;;;;;;7.25;1.10;;;8.10;99.90;;;;;;5091984;28;20044;-86
2023/03/27 09:46:48;;;;;;;7.00;1.50;;;8.00;99.90;;;;;;5101173;28;20048;-87
2023/03/27 09:49:37;;;;;;;4.15;0.73;;;8.30;99.90;;;;;;5080184;28;20051;-85
2023/03/27 09:52:33;;;;;;;6.80;0.93;;;8.40;99.70;;;;;;5091916;28;20080;-83
2023/03/27 09:55:30;;;;;;;7.07;0.90;;;8.90;99.30;;;;;;5089532;28;20048;-85
2023/03/27 09:58:24;;;;;;;5.22;0.90;;;9.00;98.90;;;;;;5092240;28;20052;-83
2023/03/27 10:01:27;;;;;;;7.10;1.50;;;9.30;98.40;;;;;;5072134;28;20495;-84
2023/03/27 10:04:17;;;;;;;5.65;0.88;;;9.10;97.00;;;;;;5097366;28;20052;-85
2023/03/27 10:07:09;;;;;;;4.53;1.00;;;9.60;98.20;;;;;;5099433;28;20152;-85
2023/03/27 10:10:10;;;;;;;7.68;1.50;;;9.40;97.10;;;;;;5089984;28;20051;-86
2023/03/27 10:12:59;;;;;;;8.90;1.20;;;9.40;96.70;;;;;;5059674;28;20552;-83
2023/03/27 10:15:45;;;;;;;6.38;1.10;;;9.30;96.60;;;;;;5077480;28;20396;-84
2023/03/27 10:18:34;;;;;;;6.30;1.10;;;9.40;96.70;;;;;;5090821;28;20048;-82
2023/03/27 10:21:43;;;;;;;3.88;0.85;;;9.50;96.80;;;;;;5089594;28;20395;-85
2023/03/27 10:24:34;;;;;;;4.20;0.82;;;9.80;97.10;;;;;;5090613;28;20399;-84
2023/03/27 10:27:29;;;;;;;8.82;1.20;;;9.90;95.90;;;;;;5097447;28;20048;-87
2023/03/27 10:30:31;;;;;;;5.72;1.45;;;10.10;96.10;;;;;;5106073;28;20084;-84
2023/03/27 10:33:29;;;;;;;19.50;3.50;;;10.30;95.20;;;;;;5095610;28;20055;-83
2023/03/27 10:36:17;;;;;;;13.52;2.53;;;9.90;95.90;;;;;;5092331;28;20047;-85
2023/03/27 10:39:10;;;;;;;9.18;1.45;;;10.00;96.10;;;;;;5099633;28;20597;-84
2023/03/27 10:41:57;;;;;;;9.68;1.17;;;9.90;95.90;;;;;;5090457;28;20577;-85
2023/03/27 10:44:46;;;;;;;12.07;1.63;;;10.00;96.40;;;;;;5092865;28;20044;-83
2023/03/27 10:47:33;;;;;;;15.98;2.60;;;10.40;97.00;;;;;;5088603;28;20052;-85
2023/03/27 10:50:44;;;;;;;12.25;1.67;;;9.50;98.10;;;;;;5101843;28;20059;-83
2023/03/27 10:53:42;;;;;;;6.95;2.05;;;8.70;99.40;;;;;;5094883;28;20111;-82
2023/03/27 10:57:01;;;;;;;10.52;1.42;;;8.30;99.50;;;;;;5073223;28;20471;-86
2023/03/27 10:59:56;;;;;;;6.47;1.17;;;8.40;99.90;;;;;;5093035;28;20052;-87
2023/03/27 11:02:57;;;;;;;5.32;1.80;;;8.60;99.60;;;;;;5092580;28;20048;-84
2023/03/27 11:05:47;;;;;;;7.93;0.90;;;8.90;99.00;;;;;;5097975;28;20091;-86
2023/03/27 11:08:52;;;;;;;9.05;1.10;;;9.10;98.30;;;;;;5088915;28;20094;-87
2023/03/27 11:11:48;;;;;;;7.18;1.27;;;9.10;99.30;;;;;;5098156;28;20052;-85
2023/03/27 11:15:16;;;;;;;7.38;1.23;;;9.70;99.20;;;;;;5088914;28;20040;-84
2023/03/27 11:18:20;;;;;;;6.47;1.38;;;10.20;98.40;;;;;;5090502;28;20051;-83
2023/03/27 11:21:41;;;;;;;9.25;1.27;;;10.50;95.60;;;;;;5091173;28;20051;-84
2023/03/27 11:24:27;;;;;;;6.47;1.20;;;10.90;95.00;;;;;;5058047;28;20065;-86
2023/03/27 11:27:38;;;;;;;5.57;1.15;;;11.00;94.20;;;;;;5093071;28;20055;-84
2023/03/27 11:30:30;;;;;;;8.25;1.60;;;11.40;93.90;;;;;;5057318;28;20059;-85
2023/03/27 11:33:31;;;;;;;5.65;1.38;;;11.20;92.50;;;;;;5076059;28;20044;-84
2023/03/27 11:36:45;;;;;;;12.20;1.85;;;11.20;90.90;;;;;;5093842;28;20056;-86
2023/03/27 11:40:03;;;;;;;6.85;1.33;;;11.40;90.70;;;;;;5091186;28;20148;-83
2023/03/27 11:42:49;;;;;;;7.25;1.90;;;11.70;91.10;;;;;;5098728;28;20056;-85
2023/03/27 11:46:01;;;;;;;11.88;3.28;;;12.10;90.80;;;;;;5073366;28;20048;-85
2023/03/27 11:48:57;;;;;;;16.92;1.52;;;12.40;93.70;;;;;;5065089;28;20599;-84
2023/03/27 11:51:56;;;;;;;9.57;1.38;;;12.30;92.80;;;;;;5090466;28;20399;-82
2023/03/27 11:55:28;;;;;;;12.43;2.35;;;12.50;93.10;;;;;;5091247;28;20094;-88
2023/03/27 11:58:43;;;;;;;6.60;1.10;;;12.60;92.30;;;;;;5087510;28;20052;-82
2023/03/27 12:01:39;;;;;;;6.05;1.10;;;13.40;91.90;;;;;;5096338;28;20407;-87
2023/03/27 12:04:52;;;;;;;6.45;0.80;;;13.40;90.20;;;;;;5093909;28;20059;-86
2023/03/27 12:08:14;;;;;;;7.28;1.25;;;13.20;90.30;;;;;;5094416;28;20052;-82
2023/03/27 12:11:04;;;;;;;9.23;1.30;;;12.20;93.10;;;;;;5071837;28;20463;-82
2023/03/27 12:13:50;;;;;;;5.15;1.30;;;12.50;93.40;;;;;;5092040;28;20048;-84
2023/03/27 12:16:41;;;;;;;2.28;0.60;;;12.00;92.30;;;;;;5092663;28;20044;-84
2023/03/27 12:19:53;;;;;;;3.03;0.77;;;12.10;93.00;;;;;;5094227;28;20054;-85
2023/03/27 12:23:01;;;;;;;9.32;1.02;;;12.50;92.40;;;;;;5093522;28;20052;-87
2023/03/27 12:26:10;;;;;;;5.38;1.00;;;12.60;91.90;;;;;;5097160;28;20178;-84
2023/03/27 12:29:18;;;;;;;6.70;1.55;;;12.60;91.20;;;;;;5089284;28;20052;-83
2023/03/27 12:32:29;;;;;;;11.65;1.42;;;13.30;91.00;;;;;;5102014;28;20048;-83
2023/03/27 12:35:21;;;;;;;8.57;1.15;;;13.40;91.10;;;;;;5092479;28;20060;-83
2023/03/27 12:38:17;;;;;;;7.82;1.35;;;13.80;90.90;;;;;;5094470;28;20052;-84
2023/03/27 12:41:04;;;;;;;6.72;2.47;;;14.10;90.60;;;;;;5092985;28;20066;-84
2023/03/27 12:43:56;;;;;;;9.73;1.50;;;13.90;90.30;;;;;;5092821;28;20052;-84
2023/03/27 12:46:42;;;;;;;11.80;1.45;;;13.70;89.30;;;;;;5098318;28;20056;-86
2023/03/27 12:50:11;;;;;;;9.98;1.95;;;13.20;90.20;;;;;;5092801;28;20122;-85
2023/03/27 12:53:03;;;;;;;16.90;2.72;;;13.80;89.40;;;;;;5053003;28;20108;-83
2023/03/27 12:56:12;;;;;;;12.55;2.20;;;12.20;92.70;;;;;;5093167;28;20056;-86
2023/03/27 12:58:58;;;;;;;12.68;1.67;;;10.40;97.40;;;;;;5104601;28;20071;-88
2023/03/27 13:02:03;;;;;;;6.97;1.42;;;9.00;99.90;;;;;;5094430;28;20528;-86
2023/03/27 13:05:11;;;;;;;6.32;1.33;;;8.20;99.90;;;;;;5104529;28;20044;-85
2023/03/27 13:07:57;;;;;;;4.55;0.77;;;7.60;99.90;;;;;;5092248;28;20047;-86
2023/03/27 13:11:08;;;;;;;9.07;1.45;;;7.40;99.90;;;;;;5091837;28;20523;-82
2023/03/27 13:14:07;;;;;;;6.97;1.00;;;9.50;99.90;;;;;;5092479;28;20051;-84
2023/03/27 13:17:01;;;;;;;3.70;0.73;;;11.90;98.40;;;;;;5078698;28;20081;-86
2023/03/27 13:20:15;;;;;;;9.75;1.40;;;13.80;94.70;;;;;;5072721;28;20059;-87
2023/03/27 13:23:12;;;;;;;10.55;1.10;;;14.00;91.90;;;;;;5091532;28;20512;-86
2023/03/27 13:26:14;;;;;;;5.22;1.45;;;15.00;90.00;;;;;;5096845;28;20052;-87
2023/03/27 13:29:01;;;;;;;12.43;1.98;;;15.70;87.30;;;;;;5091339;28;20051;-84
2023/03/27 13:31:48;;;;;;;6.75;1.40;;;15.70;83.60;;;;;;5075434;28;20050;-85
2023/03/27 13:34:41;;;;;;;8.52;1.50;;;15.80;82.20;;;;;;5077315;28;20530;-83
2023/03/27 13:37:27;;;;;;;9.30;1.77;;;15.20;84.00;;;;;;5091923;28;20044;-82
2023/03/27 13:40:44;;;;;;;6.70;1.42;;;14.90;86.20;;;;;;5092456;28;20079;-82
2023/03/27 13:43:34;;;;;;;6.72;1.30;;;15.70;83.20;;;;;;5089368;28;20048;-85
2023/03/27 13:46:27;;;;;;;7.18;1.20;;;16.60;80.50;;;;;;5096259;28;20112;-83
2023/03/27 13:49:35;;;;;;;8.02;1.05;;;16.60;78.30;;;;;;5090400;28;20079;-85
2023/03/27 13:52:31;;;;;;;7.88;1.40;;;17.60;76.80;;;;;;5078331;28;20396;-86
2023/03/27 13:55:35;;;;;;;;;;;18.10;74.00;;;;;;5092566;28;20101;-82
2023/03/27 13:58:54;;;;;;;7.00;1.52;;;17.60;67.60;;;;;;5092165;28;20327;-81
2023/03/27 14:01:50;;;;;;;6.93;1.45;;;17.50;65.80;;;;;;5089986;28;20555;-81
2023/03/27 14:04:52;;;;;;;9.35;1.73;;;17.40;65.90;;;;;;5089989;28;20052;-81
2023/03/27 14:08:17;;;;;;;8.93;1.88;;;15.50;72.30;;;;;;5075849;28;20101;-84
2023/03/27 14:11:40;;;;;;;9.73;1.40;;;15.20;81.40;;;;;;5047195;28;20416;-82
2023/03/27 14:14:45;;;;;;;8.88;1.67;;;15.10;83.80;;;;;;5089655;28;20048;-81
2023/03/27 14:17:51;;;;;;;6.13;1.27;;;15.10;84.40;;;;;;5071910;28;20399;-82
2023/03/27 14:20:46;;;;;;;6.53;1.15;;;15.60;79.00;;;;;;5091780;28;20056;-81
2023/03/27 14:23:42;;;;;;;5.70;0.93;;;16.50;76.90;;;;;;5071566;28;20056;-82
2023/03/27 14:26:32;;;;;;;5.13;0.88;;;16.70;76.40;;;;;;5074567;28;20056;-82
2023/03/27 14:29:20;;;;;;;6.93;0.88;;;17.10;74.60;;;;;;5093553;28;20111;-85
2023/03/27 14:32:16;;;;;;;6.72;1.35;;;17.90;72.20;;;;;;5089573;28;20075;-83
2023/03/27 14:35:03;;;;;;;2.67;0.52;;;18.20;70.60;;;;;;5089775;28;20051;-83
2023/03/27 14:38:02;;;;;;;4.20;0.90;;;18.40;68.20;;;;;;5090904;28;20449;-83
2023/03/27 14:40:53;;;;;;;5.38;1.35;;;19.00;66.10;;;;;;5089520;28;20055;-85
2023/03/27 14:43:46;;;;;;;7.70;1.50;;;19.20;63.40;;;;;;5090493;28;20064;-84
2023/03/27 14:46:32;;;;;;;5.07;1.10;;;19.40;61.60;;;;;;5090093;28;20094;-83
2023/03/27 14:49:23;;;;;;;7.40;1.52;;;19.40;60.90;;;;;;5091245;28;20052;-81
2023/03/27 14:52:09;;;;;;;5.85;1.27;;;19.40;58.80;;;;;;5089133;28;20048;-81
2023/03/27 14:54:58;;;;;;;11.70;1.95;;;19.30;58.70;;;;;;5075167;28;20135;-82
2023/03/27 14:57:48;;;;;;;5.53;0.93;;;19.30;57.30;;;;;;5075479;28;20055;-83
2023/03/27 15:00:37;;;;;;;13.27;1.85;;;19.30;57.40;;;;;;5088430;28;20059;-85
2023/03/27 15:03:26;;;;;;;10.82;1.25;;;19.00;58.10;;;;;;5088864;28;20048;-82
2023/03/27 15:06:24;;;;;;;11.27;1.60;;;17.00;57.90;;;;;;5075173;28;20592;-83
2023/03/27 15:13:11;;;;;;;8.45;1.25;;;12.20;87.40;;;;;;5090642;28;20211;-83